createdAt,value
2022-09-15T00:03:52.185Z,98940.20
2022-09-15T00:08:55.828Z,98935.00
2022-09-15T00:14:01.949Z,98921.80
2022-09-15T00:19:06.808Z,98921.60
2022-09-15T00:24:10.631Z,98918.00
2022-09-15T00:29:13.710Z,98916.20
2022-09-15T00:34:16.820Z,98927.60
2022-09-15T00:39:20.737Z,98923.20
2022-09-15T00:44:23.641Z,98929.40
2022-09-15T00:49:37.991Z,98919.00
2022-09-15T00:54:52.748Z,98914.00
2022-09-15T00:59:59.211Z,98914.20
2022-09-15T01:05:08.025Z,98919.40
2022-09-15T01:10:28.228Z,98914.00
2022-09-15T01:22:15.049Z,98910.20
2022-09-15T01:28:01.955Z,98905.40
2022-09-15T01:33:37.668Z,98906.20
2022-09-15T01:38:49.611Z,98901.20
2022-09-15T01:44:02.611Z,98895.20
2022-09-15T01:49:11.371Z,98890.60
2022-09-15T01:54:19.529Z,98881.00
2022-09-15T01:59:23.258Z,98880.60
2022-09-15T02:04:29.894Z,98875.00
2022-09-15T02:09:54.945Z,98873.80
2022-09-15T02:15:08.895Z,98875.20
2022-09-15T02:20:33.316Z,98867.60
2022-09-15T02:25:47.392Z,98867.20
2022-09-15T02:30:53.778Z,98868.40
2022-09-15T02:35:57.071Z,98861.20
2022-09-15T02:41:01.394Z,98858.40
2022-09-15T02:46:04.535Z,98861.00
2022-09-15T02:51:07.807Z,98860.40
2022-09-15T02:56:10.917Z,98857.40
2022-09-15T03:01:15.968Z,98853.60
2022-09-15T03:06:21.329Z,98853.80
2022-09-15T03:11:27.398Z,98856.20
2022-09-15T03:16:34.590Z,98851.20
2022-09-15T03:21:38.019Z,98851.80
2022-09-15T03:26:41.543Z,98846.80
2022-09-15T03:31:44.705Z,98848.80
2022-09-15T03:36:47.863Z,98844.40
2022-09-15T03:41:51.157Z,98844.60
2022-09-15T03:46:54.266Z,98841.60
2022-09-15T03:51:59.231Z,98838.80
2022-09-15T03:57:03.660Z,98831.80
2022-09-15T04:02:06.703Z,98834.60
2022-09-15T04:07:10.065Z,98833.60
2022-09-15T04:12:13.380Z,98836.40
2022-09-15T04:17:16.486Z,98832.00
2022-09-15T04:22:20.539Z,98830.40
2022-09-15T04:27:24.026Z,98827.40
2022-09-15T04:32:30.019Z,98823.80
2022-09-15T04:37:33.719Z,98831.00
2022-09-15T04:42:37.263Z,98829.80
2022-09-15T04:47:40.446Z,98828.00
2022-09-15T04:52:43.548Z,98836.20
2022-09-15T04:57:46.865Z,98833.60
2022-09-15T05:02:50.488Z,98835.00
2022-09-15T05:07:53.890Z,98830.80
2022-09-15T05:12:56.945Z,98830.40
2022-09-15T05:18:00.617Z,98830.40
2022-09-15T05:23:03.744Z,98832.40
2022-09-15T05:28:07.961Z,98825.60
2022-09-15T05:33:11.298Z,98822.00
2022-09-15T05:38:14.375Z,98815.40
2022-09-15T05:43:18.727Z,98813.40
2022-09-15T05:48:22.429Z,98815.00
2022-09-15T05:53:26.842Z,98818.80
2022-09-15T05:58:31.086Z,98818.00
2022-09-15T06:03:35.735Z,98813.20
2022-09-15T06:08:44.457Z,98815.20
2022-09-15T06:13:49.324Z,98802.00
2022-09-15T06:18:54.299Z,98801.20
2022-09-15T06:24:01.646Z,98803.60
2022-09-15T06:29:06.269Z,98795.80
2022-09-15T06:34:30.631Z,98792.60
2022-09-15T06:39:33.834Z,98787.80
2022-09-15T06:44:37.066Z,98789.40
2022-09-15T06:49:40.158Z,98794.80
2022-09-15T06:54:43.253Z,98787.80
2022-09-15T06:59:46.463Z,98798.60
2022-09-15T07:04:49.875Z,98797.00
2022-09-15T07:09:52.984Z,98796.60
2022-09-15T07:14:56.193Z,98798.20
2022-09-15T07:20:00.731Z,98801.80
2022-09-15T07:25:04.687Z,98798.60
2022-09-15T07:30:08.897Z,98801.80
2022-09-15T07:35:12.831Z,98796.40
2022-09-15T07:40:16.178Z,98797.40
2022-09-15T07:45:19.401Z,98799.40
2022-09-15T07:50:22.813Z,98789.80
2022-09-15T07:55:26.063Z,98783.80
2022-09-15T08:00:30.358Z,98776.20
2022-09-15T08:05:37.769Z,98780.80
2022-09-15T08:10:42.963Z,98773.60
2022-09-15T08:15:47.380Z,98766.60
2022-09-15T08:20:50.600Z,98760.80
2022-09-15T08:25:54.011Z,98761.40
2022-09-15T08:31:09.522Z,98765.40
2022-09-15T08:36:13.742Z,98765.20
2022-09-15T08:41:33.668Z,98770.80
2022-09-15T08:47:19.478Z,98771.80
2022-09-15T08:52:54.420Z,98777.00
2022-09-15T08:57:57.610Z,98771.40
2022-09-15T09:03:36.248Z,98764.20
2022-09-15T09:09:12.018Z,98760.80
2022-09-15T09:14:36.946Z,98764.00
2022-09-15T09:20:18.644Z,98766.80
2022-09-15T09:25:27.954Z,98767.80
2022-09-15T09:30:36.525Z,98768.40
2022-09-15T09:35:45.812Z,98760.60
2022-09-15T09:40:51.246Z,98756.60
2022-09-15T09:45:54.523Z,98761.20
2022-09-15T09:50:57.870Z,98762.60
2022-09-15T09:56:25.945Z,98763.20
2022-09-15T10:01:29.673Z,98764.20
2022-09-15T10:06:34.337Z,98768.20
2022-09-15T10:11:57.694Z,98765.60
2022-09-15T10:17:36.552Z,98766.40
2022-09-15T10:22:42.388Z,98760.20
2022-09-15T10:28:01.496Z,98772.40
2022-09-15T10:33:37.118Z,98777.20
2022-09-15T10:38:54.933Z,98780.20
2022-09-15T10:44:26.078Z,98781.00
2022-09-15T10:49:52.345Z,98784.60
2022-09-15T10:55:51.651Z,98783.20
2022-09-15T11:01:28.682Z,98780.00
2022-09-15T11:06:40.682Z,98773.00
2022-09-15T11:12:07.636Z,98766.00
2022-09-15T11:17:53.541Z,98762.20
2022-09-15T11:23:22.968Z,98762.00
2022-09-15T11:28:58.428Z,98769.20
2022-09-15T11:34:17.862Z,98761.60
2022-09-15T11:39:31.579Z,98769.80
2022-09-15T11:44:43.075Z,98762.20
2022-09-15T11:49:57.313Z,98755.80
2022-09-15T11:55:38.643Z,98761.40
2022-09-15T12:01:10.552Z,98763.80
2022-09-15T12:06:23.773Z,98760.20
2022-09-15T12:11:32.406Z,98758.60
2022-09-15T12:16:36.430Z,98753.40
2022-09-15T12:22:01.008Z,98759.80
2022-09-15T12:27:05.172Z,98754.20
2022-09-15T12:32:33.383Z,98750.80
2022-09-15T12:37:40.263Z,98750.20
2022-09-15T12:42:46.453Z,98745.20
2022-09-15T12:48:29.482Z,98743.40
2022-09-15T12:53:50.375Z,98741.80
2022-09-15T12:58:56.069Z,98738.20
2022-09-15T13:03:59.096Z,98736.00
2022-09-15T13:09:02.626Z,98740.60
2022-09-15T13:14:08.897Z,98734.20
2022-09-15T13:19:29.887Z,98731.00
2022-09-15T13:24:59.022Z,98731.80
2022-09-15T13:30:39.627Z,98732.00
2022-09-15T13:35:52.136Z,98731.80
2022-09-15T13:41:31.178Z,98746.20
2022-09-15T13:46:50.354Z,98729.80
2022-09-15T13:52:13.027Z,98729.80
2022-09-15T13:57:16.372Z,98728.40
2022-09-15T14:02:21.246Z,98730.00
2022-09-15T14:07:26.035Z,98729.80
2022-09-15T14:12:29.446Z,98729.80
2022-09-15T14:17:34.377Z,98734.40
2022-09-15T14:22:41.291Z,98756.00
2022-09-15T14:27:53.837Z,98750.40
2022-09-15T14:33:01.053Z,98756.20
2022-09-15T14:38:04.958Z,98755.00
2022-09-15T14:43:36.196Z,98762.60
2022-09-15T14:48:40.355Z,98756.40
2022-09-15T14:53:45.185Z,98765.40
2022-09-15T14:58:56.243Z,98782.00
2022-09-15T15:04:24.778Z,98783.80
2022-09-15T15:09:56.872Z,98786.80
2022-09-15T15:15:01.427Z,98786.00
2022-09-15T15:20:10.696Z,98786.60
2022-09-15T15:25:36.793Z,98783.20
2022-09-15T15:30:42.477Z,98775.60
2022-09-15T15:35:46.393Z,98767.00
2022-09-15T15:41:00.555Z,98767.80
2022-09-15T15:46:07.794Z,98764.20
2022-09-15T15:51:11.075Z,98759.20
2022-09-15T15:56:14.741Z,98762.60
2022-09-15T16:01:18.060Z,98770.80
2022-09-15T16:06:22.335Z,98763.60
2022-09-15T16:11:25.477Z,98768.60
2022-09-15T16:16:29.637Z,98767.60
2022-09-15T16:21:39.811Z,98765.80
2022-09-15T16:26:44.177Z,98759.40
2022-09-15T16:31:48.930Z,98769.80
2022-09-15T16:36:52.135Z,98769.20
2022-09-15T16:41:55.276Z,98775.20
2022-09-15T16:46:58.714Z,98775.20
2022-09-15T16:52:02.120Z,98772.60
2022-09-15T16:57:05.175Z,98771.00
2022-09-15T17:02:14.357Z,98776.40
2022-09-15T17:07:17.917Z,98776.00
2022-09-15T17:12:22.490Z,98773.20
2022-09-15T17:17:26.335Z,98780.80
2022-09-15T17:22:29.625Z,98784.80
2022-09-15T17:27:32.773Z,98788.20
2022-09-15T17:32:36.160Z,98788.80
2022-09-15T17:37:39.339Z,98790.80
2022-09-15T17:42:43.681Z,98788.20
2022-09-15T17:47:48.619Z,98791.60
2022-09-15T17:52:52.233Z,98800.60
2022-09-15T17:57:57.810Z,98794.40
2022-09-15T18:03:11.101Z,98796.20
2022-09-15T18:08:16.748Z,98795.80
2022-09-15T18:13:24.416Z,98791.20
2022-09-15T18:18:28.651Z,98790.60
2022-09-15T18:23:31.863Z,98796.20
2022-09-15T18:28:34.969Z,98803.00
2022-09-15T18:33:38.090Z,98815.20
2022-09-15T18:38:42.111Z,98811.20
2022-09-15T18:43:49.254Z,98809.40
2022-09-15T18:48:53.023Z,98813.60
2022-09-15T18:53:57.593Z,98816.60
2022-09-15T18:59:02.010Z,98810.40
2022-09-15T19:04:05.106Z,98813.20
2022-09-15T19:09:08.212Z,98812.40
2022-09-15T19:14:11.354Z,98810.40
2022-09-15T19:19:15.013Z,98806.60
2022-09-15T19:24:18.456Z,98806.00
2022-09-15T19:29:21.557Z,98804.60
2022-09-15T19:34:24.670Z,98806.40
2022-09-15T19:39:27.979Z,98809.20
2022-09-15T19:44:31.099Z,98812.80
2022-09-15T19:49:34.404Z,98812.80
2022-09-15T19:54:37.604Z,98815.00
2022-09-15T19:59:40.820Z,98814.60
2022-09-15T20:10:05.402Z,98828.20
2022-09-15T20:15:09.161Z,98828.60
2022-09-15T20:20:12.302Z,98825.20
2022-09-15T20:25:15.648Z,98827.60
2022-09-15T20:30:21.999Z,98827.00
2022-09-15T20:35:24.978Z,98826.40
2022-09-15T20:40:28.064Z,98827.60
2022-09-15T20:45:36.483Z,98827.40
2022-09-15T20:50:40.358Z,98823.40
2022-09-15T20:55:50.603Z,98817.40
2022-09-15T21:01:27.805Z,98827.20
2022-09-15T21:06:31.842Z,98829.80
2022-09-15T21:11:35.977Z,98826.80
2022-09-15T21:16:39.394Z,98820.20
2022-09-15T21:21:42.518Z,98811.40
2022-09-15T21:27:04.074Z,98816.80
2022-09-15T21:32:07.204Z,98814.40
2022-09-15T21:37:11.171Z,98815.00
2022-09-15T21:42:14.274Z,98808.80
2022-09-15T21:47:17.381Z,98810.40
2022-09-15T21:52:20.486Z,98807.40
2022-09-15T21:57:24.219Z,98806.80
2022-09-15T22:02:27.699Z,98805.40
2022-09-15T22:07:30.929Z,98808.20
2022-09-15T22:12:33.963Z,98807.20
2022-09-15T22:17:37.037Z,98802.00
2022-09-15T22:22:40.770Z,98800.00
2022-09-15T22:27:43.969Z,98798.20
2022-09-15T22:32:47.184Z,98794.80
2022-09-15T22:37:50.235Z,98798.00
2022-09-15T22:42:53.282Z,98790.40
2022-09-15T22:47:56.934Z,98788.00
2022-09-15T22:53:00.006Z,98802.40
2022-09-15T22:58:03.131Z,98800.00
2022-09-15T23:03:07.653Z,98789.80
2022-09-15T23:08:10.976Z,98782.60
2022-09-15T23:13:14.992Z,98799.60
2022-09-15T23:18:18.102Z,98785.40
2022-09-15T23:23:21.152Z,98795.00
2022-09-15T23:28:24.841Z,98793.20
2022-09-15T23:33:34.136Z,98788.60
2022-09-15T23:38:40.512Z,98791.80
2022-09-15T23:43:43.902Z,98799.40
2022-09-15T23:48:46.962Z,98803.60
2022-09-15T23:53:50.018Z,98799.80
2022-09-15T23:58:53.004Z,98785.80
